createdAt,value
2023-04-26T00:01:28.466Z,2.30
2023-04-26T00:03:56.413Z,2.45
2023-04-26T00:06:23.381Z,2.75
2023-04-26T00:08:50.012Z,3.13
2023-04-26T00:11:16.615Z,2.50
2023-04-26T00:13:43.052Z,2.55
2023-04-26T00:16:09.509Z,2.25
2023-04-26T00:18:35.997Z,2.25
2023-04-26T00:21:02.702Z,2.65
2023-04-26T00:23:29.164Z,2.67
2023-04-26T00:25:57.032Z,2.67
2023-04-26T00:28:23.488Z,2.60
2023-04-26T00:30:51.129Z,2.60
2023-04-26T00:33:17.641Z,2.38
2023-04-26T00:35:44.263Z,2.22
2023-04-26T00:38:10.765Z,2.55
2023-04-26T00:40:37.272Z,2.45
2023-04-26T00:43:03.989Z,2.95
2023-04-26T00:45:31.033Z,2.58
2023-04-26T00:48:01.288Z,2.97
2023-04-26T00:50:28.879Z,2.90
2023-04-26T00:52:57.194Z,2.33
2023-04-26T00:55:23.909Z,2.78
2023-04-26T00:57:50.364Z,2.60
2023-04-26T01:00:16.919Z,3.08
2023-04-26T01:02:44.229Z,2.47
2023-04-26T01:05:11.187Z,2.53
2023-04-26T01:07:38.643Z,2.65
2023-04-26T01:10:06.153Z,2.88
2023-04-26T01:12:33.132Z,2.90
2023-04-26T01:15:00.432Z,2.30
2023-04-26T01:17:26.997Z,2.58
2023-04-26T01:19:56.895Z,3.08
2023-04-26T01:22:23.330Z,2.60
2023-04-26T01:24:51.475Z,2.88
2023-04-26T01:27:18.186Z,3.08
2023-04-26T01:29:46.055Z,2.92
2023-04-26T01:32:12.535Z,2.42
2023-04-26T01:34:38.956Z,2.65
2023-04-26T01:37:05.399Z,2.50
2023-04-26T01:39:31.824Z,2.42
2023-04-26T01:42:02.824Z,3.17
2023-04-26T01:44:31.967Z,2.53
2023-04-26T01:47:01.024Z,3.08
2023-04-26T01:49:27.467Z,2.47
2023-04-26T01:51:55.428Z,2.45
2023-04-26T01:54:23.690Z,2.55
2023-04-26T01:56:50.309Z,2.75
2023-04-26T01:59:16.790Z,2.67
2023-04-26T02:01:43.616Z,3.03
2023-04-26T02:04:10.644Z,3.42
2023-04-26T02:06:37.917Z,3.40
2023-04-26T02:09:05.052Z,3.00
2023-04-26T02:11:31.502Z,3.10
2023-04-26T02:13:58.127Z,3.60
2023-04-26T02:16:24.610Z,2.90
2023-04-26T02:18:51.323Z,3.03
2023-04-26T02:21:18.537Z,3.42
2023-04-26T02:23:45.611Z,3.22
2023-04-26T02:26:13.286Z,3.10
2023-04-26T02:28:39.953Z,3.05
2023-04-26T02:31:06.474Z,3.13
2023-04-26T02:33:32.981Z,3.42
2023-04-26T02:35:59.759Z,3.50
2023-04-26T02:38:26.354Z,3.35
2023-04-26T02:41:03.186Z,3.70
2023-04-26T02:43:30.418Z,3.38
2023-04-26T02:45:58.944Z,2.95
2023-04-26T02:48:25.709Z,3.45
2023-04-26T02:50:52.504Z,3.38
2023-04-26T02:53:19.152Z,3.70
2023-04-26T02:55:45.982Z,3.58
2023-04-26T02:58:13.058Z,2.90
2023-04-26T03:00:39.772Z,3.55
2023-04-26T03:03:06.805Z,3.15
2023-04-26T03:05:33.356Z,3.40
2023-04-26T03:08:00.231Z,3.28
2023-04-26T03:10:27.056Z,3.47
2023-04-26T03:12:53.621Z,3.58
2023-04-26T03:15:20.116Z,3.05
2023-04-26T03:17:46.671Z,2.92
2023-04-26T03:20:14.928Z,3.30
2023-04-26T03:22:41.850Z,3.80
2023-04-26T03:25:09.056Z,2.85
2023-04-26T03:27:35.623Z,3.65
2023-04-26T03:30:02.143Z,3.20
2023-04-26T03:32:29.598Z,2.67
2023-04-26T03:34:56.140Z,3.45
2023-04-26T03:37:22.653Z,3.30
2023-04-26T03:39:56.438Z,2.97
2023-04-26T03:42:23.225Z,3.08
2023-04-26T03:44:49.696Z,3.00
2023-04-26T03:47:16.169Z,3.60
2023-04-26T03:49:42.773Z,3.67
2023-04-26T03:52:09.245Z,3.17
2023-04-26T03:54:36.249Z,3.30
2023-04-26T03:57:02.761Z,3.65
2023-04-26T03:59:29.759Z,3.70
2023-04-26T04:01:56.220Z,3.53
2023-04-26T04:04:23.189Z,3.40
2023-04-26T04:06:50.116Z,3.58
2023-04-26T04:09:17.543Z,3.38
2023-04-26T04:11:45.684Z,3.58
2023-04-26T04:14:12.825Z,3.75
2023-04-26T04:16:39.403Z,3.13
2023-04-26T04:19:06.183Z,3.00
2023-04-26T04:21:32.686Z,3.75
2023-04-26T04:23:59.181Z,3.72
2023-04-26T04:26:25.808Z,3.60
2023-04-26T04:28:53.535Z,3.80
2023-04-26T04:31:20.334Z,3.75
2023-04-26T04:33:46.924Z,3.58
2023-04-26T04:36:16.762Z,3.20
2023-04-26T04:38:44.261Z,3.65
2023-04-26T04:41:12.236Z,4.03
2023-04-26T04:43:38.688Z,3.78
2023-04-26T04:46:06.094Z,3.67
2023-04-26T04:48:33.575Z,3.88
2023-04-26T04:51:00.023Z,3.80
2023-04-26T04:53:27.000Z,3.97
2023-04-26T04:55:53.471Z,3.53
2023-04-26T04:58:19.906Z,3.40
2023-04-26T05:00:46.682Z,3.42
2023-04-26T05:03:23.333Z,3.85
2023-04-26T05:05:50.705Z,3.42
2023-04-26T05:08:17.205Z,4.25
2023-04-26T05:10:45.492Z,3.70
2023-04-26T05:13:12.230Z,3.35
2023-04-26T05:15:39.223Z,3.78
2023-04-26T05:18:05.758Z,3.72
2023-04-26T05:20:32.465Z,3.80
2023-04-26T05:22:59.593Z,3.80
2023-04-26T05:25:26.060Z,3.63
2023-04-26T05:27:58.946Z,3.83
2023-04-26T05:30:51.419Z,3.47
2023-04-26T05:33:42.388Z,3.72
2023-04-26T05:36:17.328Z,3.40
2023-04-26T05:38:43.812Z,4.22
2023-04-26T05:41:10.534Z,3.22
2023-04-26T05:43:37.779Z,3.65
2023-04-26T05:46:05.077Z,4.10
2023-04-26T05:48:31.630Z,3.75
2023-04-26T05:50:58.072Z,3.83
2023-04-26T05:53:24.637Z,3.53
2023-04-26T05:55:51.993Z,3.60
2023-04-26T05:58:18.471Z,3.92
2023-04-26T06:00:46.036Z,3.80
2023-04-26T06:03:13.049Z,3.67
2023-04-26T06:05:39.784Z,3.42
2023-04-26T06:08:06.333Z,3.65
2023-04-26T06:10:33.252Z,3.20
2023-04-26T06:12:59.705Z,3.90
2023-04-26T06:15:28.474Z,3.53
2023-04-26T06:17:55.248Z,3.30
2023-04-26T06:20:22.146Z,3.72
2023-04-26T06:22:48.705Z,3.45
2023-04-26T06:25:15.495Z,4.22
2023-04-26T06:27:42.542Z,3.30
2023-04-26T06:30:09.916Z,3.90
2023-04-26T06:32:41.209Z,3.80
2023-04-26T06:35:08.556Z,4.10
2023-04-26T06:37:35.157Z,3.97
2023-04-26T06:40:02.163Z,3.67
2023-04-26T06:42:28.842Z,3.50
2023-04-26T06:45:14.068Z,3.70
2023-04-26T06:47:40.767Z,3.85
2023-04-26T06:50:07.979Z,4.10
2023-04-26T06:52:34.678Z,4.35
2023-04-26T06:55:03.151Z,4.03
2023-04-26T06:57:29.681Z,3.83
2023-04-26T06:59:57.016Z,4.07
2023-04-26T07:02:24.499Z,4.25
2023-04-26T07:04:51.672Z,4.10
2023-04-26T07:07:18.383Z,4.15
2023-04-26T07:09:44.763Z,3.83
2023-04-26T07:12:12.448Z,4.05
2023-04-26T07:14:40.688Z,4.40
2023-04-26T07:17:07.531Z,3.90
2023-04-26T07:19:33.972Z,4.20
2023-04-26T07:22:01.237Z,3.80
2023-04-26T07:24:27.658Z,3.67
2023-04-26T07:26:54.120Z,4.25
2023-04-26T07:29:20.673Z,3.97
2023-04-26T07:31:47.393Z,4.30
2023-04-26T07:34:13.819Z,4.50
2023-04-26T07:36:40.366Z,4.35
2023-04-26T07:39:09.082Z,4.43
2023-04-26T07:41:35.615Z,4.30
2023-04-26T07:44:02.082Z,4.43
2023-04-26T07:46:28.487Z,3.88
2023-04-26T07:48:54.923Z,3.70
2023-04-26T07:51:21.343Z,4.00
2023-04-26T07:53:47.992Z,4.00
2023-04-26T07:56:15.329Z,3.97
2023-04-26T07:58:41.777Z,4.20
2023-04-26T08:01:08.754Z,4.57
2023-04-26T08:03:35.308Z,3.97
2023-04-26T08:06:02.341Z,3.88
2023-04-26T08:08:28.990Z,3.70
2023-04-26T08:10:56.107Z,4.40
2023-04-26T08:13:22.625Z,3.60
2023-04-26T08:15:49.135Z,3.80
2023-04-26T08:18:15.580Z,4.30
2023-04-26T08:20:42.401Z,3.70
2023-04-26T08:23:08.791Z,4.10
2023-04-26T08:25:35.310Z,3.80
2023-04-26T08:28:02.430Z,3.90
2023-04-26T08:30:29.524Z,3.53
2023-04-26T08:32:56.620Z,3.80
2023-04-26T08:35:23.216Z,3.38
2023-04-26T08:37:49.647Z,3.58
2023-04-26T08:40:23.643Z,2.80
2023-04-26T08:42:50.484Z,3.22
2023-04-26T08:45:17.102Z,3.00
2023-04-26T08:48:06.476Z,3.15
2023-04-26T08:50:34.406Z,3.00
2023-04-26T08:53:00.939Z,3.50
2023-04-26T08:55:28.041Z,3.00
2023-04-26T08:57:55.949Z,2.67
2023-04-26T09:00:23.103Z,2.70
2023-04-26T09:02:51.922Z,3.40
2023-04-26T09:05:26.707Z,3.00
2023-04-26T09:08:05.143Z,2.70
2023-04-26T09:10:32.266Z,3.20
2023-04-26T09:12:58.836Z,3.33
2023-04-26T09:15:27.488Z,2.83
2023-04-26T09:17:54.055Z,2.78
2023-04-26T09:20:30.585Z,2.70
2023-04-26T09:23:08.250Z,3.05
2023-04-26T09:25:36.146Z,3.17
2023-04-26T09:28:04.286Z,3.08
2023-04-26T09:30:38.030Z,2.90
2023-04-26T09:33:06.809Z,3.33
2023-04-26T09:35:38.580Z,3.40
2023-04-26T09:38:18.522Z,3.25
2023-04-26T09:40:46.255Z,3.55
2023-04-26T09:43:17.720Z,3.60
2023-04-26T09:45:52.423Z,3.50
2023-04-26T09:48:21.861Z,2.88
2023-04-26T09:50:52.260Z,4.00
2023-04-26T09:53:37.755Z,3.28
2023-04-26T09:56:14.166Z,3.08
2023-04-26T09:58:58.122Z,3.70
2023-04-26T10:01:25.601Z,2.47
2023-04-26T10:03:53.078Z,2.55
2023-04-26T10:06:19.787Z,2.13
2023-04-26T10:08:46.238Z,2.45
2023-04-26T10:11:13.787Z,1.80
2023-04-26T10:13:41.994Z,2.67
2023-04-26T10:16:10.088Z,2.17
2023-04-26T10:18:37.379Z,2.92
2023-04-26T10:21:12.065Z,2.50
2023-04-26T10:23:39.598Z,2.58
2023-04-26T10:26:06.352Z,2.40
2023-04-26T10:28:45.108Z,2.00
2023-04-26T10:31:12.235Z,2.80
2023-04-26T10:33:38.736Z,2.15
2023-04-26T10:36:08.358Z,2.40
2023-04-26T10:39:13.586Z,2.00
2023-04-26T10:41:41.348Z,2.50
2023-04-26T10:44:32.673Z,2.22
2023-04-26T10:46:59.133Z,2.58
2023-04-26T10:49:26.706Z,2.05
2023-04-26T10:52:11.556Z,2.65
2023-04-26T10:54:55.749Z,2.78
2023-04-26T10:57:23.557Z,2.85
2023-04-26T11:00:14.409Z,2.50
2023-04-26T11:02:55.163Z,2.95
2023-04-26T11:05:41.053Z,2.50
2023-04-26T11:08:15.250Z,2.42
2023-04-26T11:10:42.611Z,2.28
2023-04-26T11:13:09.034Z,2.65
2023-04-26T11:15:36.241Z,2.67
2023-04-26T11:18:04.860Z,2.08
2023-04-26T11:20:34.706Z,2.28
2023-04-26T11:23:02.028Z,2.28
2023-04-26T11:25:29.502Z,2.22
2023-04-26T11:28:01.024Z,2.05
2023-04-26T11:30:33.745Z,2.08
2023-04-26T11:33:01.292Z,2.15
2023-04-26T11:35:29.690Z,1.83
2023-04-26T11:38:02.667Z,2.17
2023-04-26T11:40:31.360Z,2.10
2023-04-26T11:43:02.417Z,2.00
2023-04-26T11:45:28.954Z,2.13
2023-04-26T11:47:55.996Z,2.00
2023-04-26T11:50:26.649Z,2.22
2023-04-26T11:52:56.983Z,1.98
2023-04-26T11:55:27.504Z,2.20
2023-04-26T11:57:54.557Z,1.90
2023-04-26T12:00:21.324Z,2.15
2023-04-26T12:02:48.392Z,1.80
2023-04-26T12:05:28.311Z,2.15
2023-04-26T12:07:59.502Z,2.55
2023-04-26T12:10:39.439Z,1.90
2023-04-26T12:13:05.920Z,2.10
2023-04-26T12:15:33.448Z,2.33
2023-04-26T12:18:08.768Z,2.35
2023-04-26T12:20:40.592Z,2.00
2023-04-26T12:23:09.719Z,2.00
2023-04-26T12:25:39.292Z,2.40
2023-04-26T12:28:11.901Z,2.42
2023-04-26T12:30:39.823Z,2.10
2023-04-26T12:33:16.455Z,2.67
2023-04-26T12:35:44.207Z,2.30
2023-04-26T12:38:12.263Z,2.33
2023-04-26T12:40:39.079Z,2.75
2023-04-26T12:43:05.484Z,2.40
2023-04-26T12:45:32.028Z,2.60
2023-04-26T12:48:01.255Z,2.50
2023-04-26T12:50:27.906Z,2.60
2023-04-26T12:52:54.534Z,2.45
2023-04-26T12:55:21.185Z,2.50
2023-04-26T12:57:47.623Z,3.40
2023-04-26T13:00:16.996Z,2.72
2023-04-26T13:02:44.054Z,2.67
2023-04-26T13:05:11.142Z,2.60
2023-04-26T13:07:39.784Z,2.78
2023-04-26T13:10:07.445Z,2.25
2023-04-26T13:12:34.464Z,2.45
2023-04-26T13:15:01.091Z,2.20
2023-04-26T13:17:28.122Z,2.70
2023-04-26T13:19:54.631Z,2.92
2023-04-26T13:22:21.353Z,2.70
2023-04-26T13:24:47.862Z,2.25
2023-04-26T13:27:14.452Z,2.22
2023-04-26T13:29:41.959Z,2.70
2023-04-26T13:32:08.567Z,2.65
2023-04-26T13:34:35.010Z,2.15
2023-04-26T13:37:01.767Z,2.40
2023-04-26T13:39:29.340Z,2.22
2023-04-26T13:41:55.976Z,2.25
2023-04-26T13:44:22.408Z,1.70
2023-04-26T13:46:48.893Z,2.30
2023-04-26T13:49:15.491Z,1.85
2023-04-26T13:51:41.909Z,1.90
2023-04-26T13:54:08.593Z,2.03
2023-04-26T13:56:35.020Z,2.40
2023-04-26T13:59:02.847Z,1.80
2023-04-26T14:01:29.852Z,2.03
2023-04-26T14:03:56.518Z,2.08
2023-04-26T14:06:23.118Z,2.03
2023-04-26T14:08:49.696Z,1.98
2023-04-26T14:11:16.193Z,2.45
2023-04-26T14:13:42.705Z,2.15
2023-04-26T14:16:10.593Z,2.15
2023-04-26T14:18:37.561Z,2.25
2023-04-26T14:21:04.345Z,2.13
2023-04-26T14:23:30.811Z,2.20
2023-04-26T14:25:57.617Z,2.50
2023-04-26T14:28:24.024Z,2.45
2023-04-26T14:30:50.435Z,2.50
2023-04-26T14:33:17.242Z,2.40
2023-04-26T14:35:43.721Z,2.60
2023-04-26T14:38:10.208Z,2.35
2023-04-26T14:40:37.361Z,2.35
2023-04-26T14:43:03.835Z,2.47
2023-04-26T14:45:43.457Z,2.47
2023-04-26T14:48:12.292Z,2.15
2023-04-26T14:50:38.833Z,2.30
2023-04-26T14:53:05.322Z,2.38
2023-04-26T14:55:32.366Z,2.20
2023-04-26T14:57:58.922Z,2.28
2023-04-26T15:00:25.908Z,1.70
2023-04-26T15:02:52.541Z,1.95
2023-04-26T15:05:19.183Z,1.80
2023-04-26T15:07:45.590Z,2.08
2023-04-26T15:10:12.012Z,2.33
2023-04-26T15:12:38.457Z,2.38
2023-04-26T15:15:05.344Z,2.33
2023-04-26T15:17:32.895Z,2.10
2023-04-26T15:20:01.190Z,2.30
2023-04-26T15:22:27.724Z,2.20
2023-04-26T15:24:54.284Z,2.60
2023-04-26T15:27:21.001Z,2.08
2023-04-26T15:29:47.419Z,2.42
2023-04-26T15:32:13.838Z,2.65
2023-04-26T15:34:43.452Z,2.30
2023-04-26T15:37:12.783Z,2.10
2023-04-26T15:39:39.254Z,2.50
2023-04-26T15:42:05.933Z,2.33
2023-04-26T15:44:32.729Z,2.40
2023-04-26T15:47:01.290Z,2.35
2023-04-26T15:49:28.612Z,2.28
2023-04-26T15:51:55.133Z,2.25
2023-04-26T15:54:21.771Z,1.98
2023-04-26T15:56:48.355Z,2.75
2023-04-26T15:59:14.780Z,2.30
2023-04-26T16:01:41.342Z,2.35
2023-04-26T16:04:07.894Z,2.00
2023-04-26T16:06:34.456Z,2.55
2023-04-26T16:09:02.210Z,2.28
2023-04-26T16:11:28.676Z,2.00
2023-04-26T16:13:55.513Z,2.47
2023-04-26T16:16:22.693Z,2.03
2023-04-26T16:18:49.256Z,2.38
2023-04-26T16:21:16.067Z,1.98
2023-04-26T16:23:42.547Z,2.53
2023-04-26T16:26:09.429Z,2.33
2023-04-26T16:28:36.225Z,2.20
2023-04-26T16:31:02.870Z,1.98
2023-04-26T16:33:29.602Z,2.15
2023-04-26T16:35:56.172Z,2.08
2023-04-26T16:38:23.830Z,2.15
2023-04-26T16:41:01.437Z,2.20
2023-04-26T16:43:29.435Z,1.83
2023-04-26T16:46:01.764Z,2.10
2023-04-26T16:48:30.825Z,1.88
2023-04-26T16:50:57.266Z,2.40
2023-04-26T16:53:24.033Z,2.40
2023-04-26T16:55:51.132Z,2.10
2023-04-26T16:58:17.941Z,2.10
2023-04-26T17:00:44.720Z,2.42
2023-04-26T17:03:11.775Z,2.33
2023-04-26T17:05:49.136Z,2.10
2023-04-26T17:08:17.146Z,2.15
2023-04-26T17:10:45.357Z,2.47
2023-04-26T17:13:12.828Z,2.90
2023-04-26T17:15:41.067Z,2.25
2023-04-26T17:18:08.480Z,2.25
2023-04-26T17:20:35.760Z,2.40
2023-04-26T17:23:04.174Z,2.50
2023-04-26T17:25:31.447Z,2.45
2023-04-26T17:27:58.312Z,2.60
2023-04-26T17:30:25.339Z,2.47
2023-04-26T17:32:51.795Z,2.22
2023-04-26T17:35:18.254Z,2.65
2023-04-26T17:37:50.024Z,2.40
2023-04-26T17:40:18.389Z,2.55
2023-04-26T17:42:46.195Z,2.55
2023-04-26T17:45:14.213Z,2.67
2023-04-26T17:47:41.774Z,2.67
2023-04-26T17:50:09.103Z,2.72
2023-04-26T17:52:35.674Z,2.30
2023-04-26T17:55:02.942Z,2.03
2023-04-26T17:57:29.613Z,2.35
2023-04-26T17:59:56.367Z,2.50
2023-04-26T18:02:23.056Z,2.63
2023-04-26T18:04:49.966Z,2.63
2023-04-26T18:07:16.652Z,2.20
2023-04-26T18:09:43.122Z,1.98
2023-04-26T18:12:09.668Z,2.50
2023-04-26T18:14:36.328Z,2.20
2023-04-26T18:17:04.202Z,2.35
2023-04-26T18:19:30.828Z,2.10
2023-04-26T18:21:57.376Z,2.20
2023-04-26T18:24:23.872Z,2.53
2023-04-26T18:26:50.305Z,2.58
2023-04-26T18:29:16.793Z,2.50
2023-04-26T18:31:43.505Z,2.50
2023-04-26T18:34:11.368Z,2.63
2023-04-26T18:36:37.844Z,2.75
2023-04-26T18:39:04.633Z,2.30
2023-04-26T18:41:31.233Z,1.98
2023-04-26T18:43:57.638Z,2.90
2023-04-26T18:46:24.132Z,2.13
2023-04-26T18:48:50.670Z,2.67
2023-04-26T18:51:17.147Z,1.92
2023-04-26T18:53:44.436Z,2.20
2023-04-26T18:56:10.913Z,1.98
2023-04-26T18:58:37.454Z,2.58
2023-04-26T19:01:03.933Z,2.25
2023-04-26T19:03:30.576Z,2.22
2023-04-26T19:05:57.077Z,1.95
2023-04-26T19:08:25.269Z,2.17
2023-04-26T19:10:52.108Z,2.30
2023-04-26T19:13:18.889Z,2.40
2023-04-26T19:15:45.612Z,2.22
2023-04-26T19:18:12.100Z,2.45
2023-04-26T19:20:38.656Z,2.03
2023-04-26T19:23:05.066Z,2.47
2023-04-26T19:25:31.829Z,3.03
2023-04-26T19:27:58.234Z,2.60
2023-04-26T19:30:24.735Z,3.47
2023-04-26T19:32:51.298Z,3.60
2023-04-26T19:35:17.868Z,3.50
2023-04-26T19:37:44.372Z,3.30
2023-04-26T19:40:11.107Z,3.40
2023-04-26T19:42:37.541Z,3.00
2023-04-26T19:45:04.425Z,3.63
2023-04-26T19:47:31.308Z,3.63
2023-04-26T19:49:59.400Z,3.40
2023-04-26T19:52:25.869Z,3.45
2023-04-26T19:54:55.486Z,3.53
2023-04-26T19:57:22.286Z,3.42
2023-04-26T19:59:48.708Z,3.20
2023-04-26T20:02:15.193Z,3.30
2023-04-26T20:04:41.743Z,2.90
2023-04-26T20:07:08.197Z,3.05
2023-04-26T20:09:35.828Z,3.05
2023-04-26T20:12:02.914Z,2.90
2023-04-26T20:14:30.430Z,2.60
2023-04-26T20:16:57.165Z,2.90
2023-04-26T20:19:23.672Z,2.97
2023-04-26T20:21:50.205Z,2.80
2023-04-26T20:24:17.078Z,2.83
2023-04-26T20:26:43.930Z,2.90
2023-04-26T20:29:10.436Z,3.00
2023-04-26T20:31:36.986Z,2.95
2023-04-26T20:34:03.663Z,3.00
2023-04-26T20:36:30.098Z,3.35
2023-04-26T20:38:56.628Z,3.60
2023-04-26T20:41:23.226Z,3.40
2023-04-26T20:43:49.682Z,3.50
2023-04-26T20:46:16.352Z,3.05
2023-04-26T20:48:43.830Z,3.58
2023-04-26T20:51:10.511Z,3.20
2023-04-26T20:53:36.934Z,3.03
2023-04-26T20:56:03.562Z,2.90
2023-04-26T20:58:30.394Z,2.70
2023-04-26T21:00:57.627Z,3.05
2023-04-26T21:03:24.190Z,2.65
2023-04-26T21:05:51.021Z,3.10
2023-04-26T21:08:17.491Z,3.40
2023-04-26T21:10:44.104Z,2.97
2023-04-26T21:13:10.629Z,3.85
2023-04-26T21:15:37.133Z,4.00
2023-04-26T21:18:03.761Z,4.57
2023-04-26T21:20:30.333Z,5.25
2023-04-26T21:22:57.065Z,5.00
2023-04-26T21:25:23.497Z,4.70
2023-04-26T21:27:52.766Z,5.05
2023-04-26T21:30:19.274Z,4.75
2023-04-26T21:32:45.892Z,4.53
2023-04-26T21:35:12.507Z,4.70
2023-04-26T21:37:39.471Z,4.38
2023-04-26T21:40:06.909Z,3.85
2023-04-26T21:42:33.614Z,3.75
2023-04-26T21:45:00.128Z,3.50
2023-04-26T21:47:26.671Z,3.30
2023-04-26T21:49:53.274Z,4.35
2023-04-26T21:52:19.680Z,4.10
2023-04-26T21:54:46.116Z,4.15
2023-04-26T21:57:12.918Z,4.20
2023-04-26T21:59:42.123Z,4.00
2023-04-26T22:02:08.715Z,4.10
2023-04-26T22:04:35.210Z,4.05
2023-04-26T22:07:01.693Z,3.88
2023-04-26T22:09:28.133Z,3.35
2023-04-26T22:11:54.548Z,3.83
2023-04-26T22:14:21.015Z,3.08
2023-04-26T22:16:47.486Z,3.40
2023-04-26T22:19:14.234Z,3.42
2023-04-26T22:21:40.958Z,3.33
2023-04-26T22:24:07.806Z,3.10
2023-04-26T22:26:34.244Z,3.88
2023-04-26T22:29:00.651Z,3.10
2023-04-26T22:31:27.088Z,2.72
2023-04-26T22:33:53.559Z,3.00
2023-04-26T22:36:20.994Z,3.00
2023-04-26T22:38:47.451Z,2.80
2023-04-26T22:41:13.894Z,2.80
2023-04-26T22:43:41.559Z,3.28
2023-04-26T22:46:08.085Z,3.08
2023-04-26T22:48:34.575Z,3.42
2023-04-26T22:51:01.007Z,3.47
2023-04-26T22:53:27.440Z,3.20
2023-04-26T22:55:53.889Z,3.00
2023-04-26T22:58:20.553Z,2.70
2023-04-26T23:00:47.080Z,2.97
2023-04-26T23:03:13.699Z,2.92
2023-04-26T23:05:40.203Z,2.90
2023-04-26T23:08:06.776Z,2.92
2023-04-26T23:10:33.200Z,3.30
2023-04-26T23:13:00.322Z,2.53
2023-04-26T23:15:26.967Z,3.15
2023-04-26T23:17:53.913Z,3.10
2023-04-26T23:20:20.462Z,3.08
2023-04-26T23:22:47.121Z,3.10
2023-04-26T23:25:13.620Z,2.90
2023-04-26T23:27:40.243Z,3.20
2023-04-26T23:30:07.841Z,3.10
2023-04-26T23:32:34.319Z,3.22
2023-04-26T23:35:00.981Z,3.58
2023-04-26T23:37:27.445Z,2.88
2023-04-26T23:39:53.843Z,3.20
2023-04-26T23:42:20.524Z,3.63
2023-04-26T23:44:46.952Z,2.97
2023-04-26T23:47:13.430Z,2.75
2023-04-26T23:49:39.873Z,3.13
2023-04-26T23:52:06.496Z,3.40
2023-04-26T23:54:33.224Z,3.00
2023-04-26T23:56:59.712Z,3.05
2023-04-26T23:59:26.119Z,3.40
